createdAt,value
2018-01-16T00:00:10.803Z,71.58
2018-01-16T00:01:10.804Z,71.58
2018-01-16T00:02:10.797Z,71.39
2018-01-16T00:03:10.794Z,71.39
2018-01-16T00:04:10.797Z,71.97
2018-01-16T00:05:10.792Z,71.68
2018-01-16T00:06:10.785Z,71.58
2018-01-16T00:07:10.789Z,71.97
2018-01-16T00:08:10.787Z,71.78
2018-01-16T00:09:10.790Z,71.68
2018-01-16T00:10:10.780Z,71.68
2018-01-16T00:11:10.783Z,71.78
2018-01-16T00:12:10.776Z,71.68
2018-01-16T00:13:10.784Z,71.97
2018-01-16T00:14:10.783Z,71.10
2018-01-16T00:15:10.784Z,71.88
2018-01-16T00:16:10.780Z,71.48
2018-01-16T00:17:10.782Z,71.29
2018-01-16T00:18:10.777Z,71.68
2018-01-16T00:19:10.778Z,71.74
2018-01-16T00:20:10.769Z,71.45
2018-01-16T00:21:10.776Z,71.94
2018-01-16T00:22:10.767Z,72.52
2018-01-16T00:23:10.768Z,72.23
2018-01-16T00:24:10.762Z,72.42
2018-01-16T00:25:10.770Z,72.42
2018-01-16T00:26:10.764Z,70.87
2018-01-16T00:27:10.762Z,70.77
2018-01-16T00:28:10.767Z,70.48
2018-01-16T00:29:10.755Z,71.06
2018-01-16T00:30:10.758Z,68.44
2018-01-16T00:31:10.759Z,68.83
2018-01-16T00:32:10.744Z,69.67
2018-01-16T00:33:10.756Z,70.93
2018-01-16T00:34:10.755Z,71.80
2018-01-16T00:35:10.739Z,72.77
2018-01-16T00:36:10.750Z,74.19
2018-01-16T00:37:10.736Z,74.71
2018-01-16T00:38:10.750Z,74.68
2018-01-16T00:39:10.740Z,77.49
2018-01-16T00:40:10.742Z,78.94
2018-01-16T00:41:10.731Z,79.20
2018-01-16T00:42:10.738Z,81.52
2018-01-16T00:43:10.735Z,82.75
2018-01-16T00:44:10.730Z,84.06
2018-01-16T00:45:10.723Z,84.64
2018-01-16T00:46:10.730Z,84.74
2018-01-16T00:47:10.726Z,85.76
2018-01-16T00:48:10.713Z,85.86
2018-01-16T00:49:10.721Z,86.82
2018-01-16T00:50:10.708Z,87.02
2018-01-16T00:51:10.704Z,87.41
2018-01-16T00:52:10.704Z,87.41
2018-01-16T00:53:10.705Z,90.12
2018-01-16T00:54:10.696Z,91.76
2018-01-16T00:55:10.698Z,91.86
2018-01-16T00:56:10.693Z,91.18
2018-01-16T00:57:10.692Z,89.92
2018-01-16T00:58:10.689Z,90.60
2018-01-16T00:59:10.689Z,90.41
2018-01-16T01:00:10.677Z,90.89
2018-01-16T01:01:10.673Z,92.54
2018-01-16T01:02:10.677Z,92.63
2018-01-16T01:03:10.669Z,92.63
2018-01-16T01:04:10.669Z,92.34
2018-01-16T01:05:10.667Z,92.83
2018-01-16T01:06:10.664Z,93.21
2018-01-16T01:07:10.650Z,94.47
2018-01-16T01:08:10.657Z,94.86
2018-01-16T01:09:10.649Z,94.18
2018-01-16T01:10:10.650Z,94.67
2018-01-16T01:11:10.639Z,94.86
2018-01-16T01:12:10.643Z,94.86
2018-01-16T01:13:10.630Z,94.86
2018-01-16T01:14:10.641Z,94.76
2018-01-16T01:15:10.633Z,94.76
2018-01-16T01:16:10.629Z,95.05
2018-01-16T01:17:10.631Z,95.44
2018-01-16T01:18:10.627Z,95.29
2018-01-16T01:19:10.609Z,95.83
2018-01-16T01:20:10.620Z,96.12
2018-01-16T01:21:10.603Z,95.83
2018-01-16T01:22:10.610Z,96.02
2018-01-16T01:23:10.600Z,95.83
2018-01-16T01:24:10.583Z,95.73
2018-01-16T01:25:10.578Z,95.73
2018-01-16T01:26:10.590Z,95.05
2018-01-16T01:27:10.590Z,95.05
2018-01-16T01:28:10.572Z,95.25
2018-01-16T01:29:10.585Z,95.25
2018-01-16T01:30:10.562Z,94.86
2018-01-16T01:31:10.557Z,94.09
2018-01-16T01:32:10.573Z,95.29
2018-01-16T01:33:10.565Z,94.33
2018-01-16T01:34:10.566Z,93.65
2018-01-16T01:35:10.561Z,94.43
2018-01-16T01:36:10.542Z,93.65
2018-01-16T01:37:10.539Z,93.85
2018-01-16T01:38:10.532Z,93.85
2018-01-16T01:39:10.542Z,93.55
2018-01-16T01:40:10.538Z,93.46
2018-01-16T01:41:10.522Z,93.26
2018-01-16T01:42:10.520Z,94.52
2018-01-16T01:43:10.511Z,93.75
2018-01-16T01:44:10.527Z,92.97
2018-01-16T01:45:10.524Z,92.97
2018-01-16T01:46:10.520Z,93.07
2018-01-16T01:47:10.496Z,93.26
2018-01-16T01:48:10.512Z,93.07
2018-01-16T01:49:10.504Z,92.40
2018-01-16T01:50:10.490Z,92.00
2018-01-16T01:51:10.481Z,91.24
2018-01-16T01:52:10.478Z,90.84
2018-01-16T01:53:10.474Z,90.94
2018-01-16T01:54:10.491Z,90.75
2018-01-16T01:55:10.484Z,90.94
2018-01-16T01:56:10.478Z,90.84
2018-01-16T01:57:10.459Z,91.04
2018-01-16T01:58:10.460Z,90.80
2018-01-16T01:59:10.451Z,89.83
2018-01-16T02:00:10.451Z,90.17
2018-01-16T02:01:10.453Z,90.26
2018-01-16T02:02:10.455Z,90.17
2018-01-16T02:03:10.450Z,89.78
2018-01-16T02:04:10.447Z,89.11
2018-01-16T02:05:10.427Z,89.01
2018-01-16T02:06:10.428Z,89.20
2018-01-16T02:07:10.439Z,89.11
2018-01-16T02:08:10.420Z,89.49
2018-01-16T02:09:10.412Z,88.91
2018-01-16T02:10:10.429Z,89.20
2018-01-16T02:11:10.408Z,88.53
2018-01-16T02:12:10.416Z,89.29
2018-01-16T02:13:10.396Z,89.29
2018-01-16T02:14:10.397Z,88.91
2018-01-16T02:15:10.389Z,88.53
2018-01-16T02:16:10.384Z,88.53
2018-01-16T02:17:10.400Z,88.48
2018-01-16T02:18:10.377Z,87.95
2018-01-16T02:19:10.377Z,88.43
2018-01-16T02:20:10.373Z,87.55
2018-01-16T02:21:10.370Z,88.23
2018-01-16T02:22:10.362Z,87.95
2018-01-16T02:23:10.361Z,87.61
2018-01-16T02:24:10.358Z,88.39
2018-01-16T02:25:10.357Z,88.87
2018-01-16T02:26:10.346Z,88.48
2018-01-16T02:27:10.345Z,88.48
2018-01-16T02:28:10.338Z,88.77
2018-01-16T02:29:10.334Z,88.19
2018-01-16T02:30:10.334Z,88.77
2018-01-16T02:31:10.325Z,89.06
2018-01-16T02:32:10.326Z,88.96
2018-01-16T02:33:10.322Z,89.15
2018-01-16T02:34:10.318Z,89.35
2018-01-16T02:35:10.314Z,89.15
2018-01-16T02:36:10.309Z,89.89
2018-01-16T02:37:10.301Z,89.89
2018-01-16T02:38:10.302Z,89.93
2018-01-16T02:39:10.293Z,89.93
2018-01-16T02:40:10.293Z,89.83
2018-01-16T02:41:10.289Z,89.93
2018-01-16T02:42:10.282Z,89.93
2018-01-16T02:43:10.333Z,90.22
2018-01-16T02:44:10.274Z,90.03
2018-01-16T02:45:10.268Z,90.03
2018-01-16T02:46:10.266Z,90.22
2018-01-16T02:47:10.266Z,90.12
2018-01-16T02:48:10.257Z,90.03
2018-01-16T02:49:10.253Z,89.83
2018-01-16T02:50:10.253Z,89.79
2018-01-16T02:51:10.248Z,90.47
2018-01-16T02:52:10.244Z,90.27
2018-01-16T02:53:10.240Z,90.27
2018-01-16T02:54:10.292Z,90.56
2018-01-16T02:55:10.232Z,90.85
2018-01-16T02:56:10.228Z,90.75
2018-01-16T02:57:10.224Z,91.14
2018-01-16T02:58:10.216Z,91.53
2018-01-16T02:59:10.215Z,91.24
2018-01-16T03:00:10.205Z,91.72
2018-01-16T03:01:10.207Z,91.33
2018-01-16T03:02:10.303Z,91.53
2018-01-16T03:03:10.197Z,91.72
2018-01-16T03:04:10.193Z,91.63
2018-01-16T03:05:10.187Z,91.33
2018-01-16T03:06:10.203Z,91.91
2018-01-16T03:07:10.195Z,91.53
2018-01-16T03:08:10.177Z,91.05
2018-01-16T03:09:10.183Z,91.05
2018-01-16T03:10:10.168Z,91.24
2018-01-16T03:11:10.164Z,91.14
2018-01-16T03:12:10.155Z,91.53
2018-01-16T03:13:10.177Z,91.53
2018-01-16T03:14:10.151Z,91.63
2018-01-16T03:15:10.146Z,91.43
2018-01-16T03:16:10.158Z,91.63
2018-01-16T03:17:10.134Z,92.21
2018-01-16T03:18:10.150Z,91.53
2018-01-16T03:19:10.140Z,91.91
2018-01-16T03:20:10.141Z,91.72
2018-01-16T03:21:10.121Z,91.82
2018-01-16T03:22:10.129Z,92.11
2018-01-16T03:23:10.108Z,92.30
2018-01-16T03:24:10.108Z,92.69
2018-01-16T03:25:10.119Z,92.30
2018-01-16T03:26:10.115Z,92.16
2018-01-16T03:27:10.091Z,92.40
2018-01-16T03:28:10.106Z,92.35
2018-01-16T03:29:10.083Z,92.93
2018-01-16T03:30:10.098Z,92.93
2018-01-16T03:31:10.089Z,92.49
2018-01-16T03:32:10.173Z,92.88
2018-01-16T03:33:10.084Z,92.49
2018-01-16T03:34:10.135Z,92.30
2018-01-16T03:35:10.075Z,92.40
2018-01-16T03:36:10.067Z,92.30
2018-01-16T03:37:10.052Z,92.21
2018-01-16T03:38:10.066Z,92.21
2018-01-16T03:39:10.054Z,91.72
2018-01-16T03:40:10.050Z,91.82
2018-01-16T03:41:10.035Z,91.72
2018-01-16T03:42:10.046Z,92.01
2018-01-16T03:43:10.041Z,92.49
2018-01-16T03:44:10.037Z,92.69
2018-01-16T03:45:10.014Z,92.49
2018-01-16T03:46:10.029Z,93.03
2018-01-16T03:47:10.008Z,92.16
2018-01-16T03:48:10.004Z,92.07
2018-01-16T03:49:10.015Z,92.59
2018-01-16T03:50:09.991Z,92.88
2018-01-16T03:51:09.986Z,92.59
2018-01-16T03:52:09.982Z,91.82
2018-01-16T03:53:09.994Z,91.91
2018-01-16T03:54:09.990Z,92.30
2018-01-16T03:55:09.973Z,92.11
2018-01-16T03:56:09.965Z,92.35
2018-01-16T03:57:09.976Z,92.25
2018-01-16T03:58:09.976Z,92.45
2018-01-16T03:59:09.966Z,92.25
2018-01-16T04:00:09.951Z,92.45
2018-01-16T04:01:09.958Z,92.45
2018-01-16T04:02:09.955Z,92.45
2018-01-16T04:03:09.934Z,92.55
2018-01-16T04:04:09.945Z,92.93
2018-01-16T04:05:09.929Z,92.55
2018-01-16T04:06:09.925Z,92.74
2018-01-16T04:07:09.920Z,92.35
2018-01-16T04:08:09.931Z,92.45
2018-01-16T04:09:09.922Z,92.93
2018-01-16T04:10:09.903Z,92.93
2018-01-16T04:11:09.902Z,92.93
2018-01-16T04:12:09.894Z,93.41
2018-01-16T04:13:09.904Z,93.51
2018-01-16T04:14:09.885Z,93.41
2018-01-16T04:15:09.879Z,94.34
2018-01-16T04:16:09.879Z,93.66
2018-01-16T04:17:09.875Z,94.14
2018-01-16T04:18:09.869Z,94.14
2018-01-16T04:19:09.860Z,93.99
2018-01-16T04:20:09.856Z,93.71
2018-01-16T04:21:09.853Z,93.47
2018-01-16T04:22:09.866Z,93.66
2018-01-16T04:23:09.891Z,93.27
2018-01-16T04:24:09.841Z,93.08
2018-01-16T04:25:09.848Z,93.13
2018-01-16T04:26:09.828Z,93.56
2018-01-16T04:27:09.838Z,93.56
2018-01-16T04:28:09.821Z,93.41
2018-01-16T04:29:09.833Z,93.03
2018-01-16T04:30:09.824Z,92.74
2018-01-16T04:31:09.807Z,92.35
2018-01-16T04:32:09.817Z,92.25
2018-01-16T04:33:09.809Z,92.45
2018-01-16T04:34:09.805Z,92.07
2018-01-16T04:35:09.809Z,92.35
2018-01-16T04:36:09.799Z,92.45
2018-01-16T04:37:09.775Z,92.41
2018-01-16T04:38:09.775Z,92.25
2018-01-16T04:39:09.781Z,92.45
2018-01-16T04:40:09.780Z,92.45
2018-01-16T04:41:09.761Z,92.07
2018-01-16T04:42:09.768Z,91.29
2018-01-16T04:43:09.751Z,90.61
2018-01-16T04:44:09.762Z,90.81
2018-01-16T04:45:09.738Z,91.19
2018-01-16T04:46:09.754Z,90.71
2018-01-16T04:47:09.744Z,90.77
2018-01-16T04:48:09.739Z,90.77
2018-01-16T04:49:09.735Z,90.37
2018-01-16T04:50:09.714Z,90.71
2018-01-16T04:51:09.710Z,90.77
2018-01-16T04:52:09.725Z,90.47
2018-01-16T04:53:09.701Z,90.47
2018-01-16T04:54:09.716Z,90.57
2018-01-16T04:55:09.706Z,90.86
2018-01-16T04:56:09.691Z,90.67
2018-01-16T04:57:09.682Z,91.44
2018-01-16T04:58:09.677Z,91.53
2018-01-16T04:59:09.687Z,91.44
2018-01-16T05:00:09.668Z,91.25
2018-01-16T05:01:09.682Z,91.05
2018-01-16T05:02:09.662Z,91.25
2018-01-16T05:03:09.653Z,91.35
2018-01-16T05:04:09.650Z,91.53
2018-01-16T05:05:09.648Z,91.53
2018-01-16T05:06:09.659Z,91.92
2018-01-16T05:07:09.649Z,91.83
2018-01-16T05:08:09.634Z,92.21
2018-01-16T05:09:09.640Z,92.41
2018-01-16T05:10:09.625Z,92.31
2018-01-16T05:11:09.635Z,92.41
2018-01-16T05:12:09.611Z,92.50
2018-01-16T05:13:09.606Z,92.98
2018-01-16T05:14:09.596Z,92.79
2018-01-16T05:15:09.616Z,93.18
2018-01-16T05:16:09.591Z,93.66
2018-01-16T05:17:09.587Z,93.66
2018-01-16T05:18:09.683Z,93.47
2018-01-16T05:19:09.582Z,94.43
2018-01-16T05:20:09.588Z,95.11
2018-01-16T05:21:09.563Z,94.82
2018-01-16T05:22:09.579Z,95.20
2018-01-16T05:23:09.552Z,95.01
2018-01-16T05:24:09.553Z,95.35
2018-01-16T05:25:09.564Z,95.64
2018-01-16T05:26:09.538Z,95.78
2018-01-16T05:27:09.555Z,95.54
2018-01-16T05:28:09.533Z,96.12
2018-01-16T05:29:09.530Z,96.31
2018-01-16T05:30:09.518Z,96.89
2018-01-16T05:31:09.524Z,96.31
2018-01-16T05:32:09.520Z,96.31
2018-01-16T05:33:09.510Z,96.99
2018-01-16T05:34:09.499Z,97.09
2018-01-16T05:35:09.515Z,97.28
2018-01-16T05:36:09.495Z,97.47
2018-01-16T05:37:09.500Z,97.67
2018-01-16T05:38:09.479Z,97.28
2018-01-16T05:39:09.495Z,97.09
2018-01-16T05:40:09.494Z,97.28
2018-01-16T05:41:09.486Z,97.57
2018-01-16T05:42:09.486Z,97.96
2018-01-16T05:43:09.460Z,98.05
2018-01-16T05:44:09.455Z,97.67
2018-01-16T05:45:09.466Z,97.47
2018-01-16T05:46:09.461Z,97.28
2018-01-16T05:47:09.441Z,97.38
2018-01-16T05:48:09.451Z,97.77
2018-01-16T05:49:09.446Z,97.38
2018-01-16T05:50:09.446Z,97.67
2018-01-16T05:51:09.440Z,97.47
2018-01-16T05:52:09.416Z,97.96
2018-01-16T05:53:09.410Z,97.67
2018-01-16T05:54:09.426Z,97.28
2018-01-16T05:55:09.395Z,97.09
2018-01-16T05:56:09.416Z,97.47
2018-01-16T05:57:09.415Z,97.19
2018-01-16T05:58:09.391Z,96.99
2018-01-16T05:59:09.375Z,97.38
2018-01-16T06:00:09.381Z,97.57
2018-01-16T06:01:09.366Z,97.09
2018-01-16T06:02:09.391Z,96.80
2018-01-16T06:03:09.375Z,97.47
2018-01-16T06:04:09.376Z,97.28
2018-01-16T06:05:09.376Z,97.19
2018-01-16T06:06:09.374Z,97.19
2018-01-16T06:07:09.347Z,96.99
2018-01-16T06:08:09.342Z,97.67
2018-01-16T06:09:09.335Z,97.67
2018-01-16T06:10:09.348Z,97.57
2018-01-16T06:11:09.342Z,97.57
2018-01-16T06:12:09.365Z,97.19
2018-01-16T06:13:09.337Z,97.57
2018-01-16T06:14:09.328Z,96.41
2018-01-16T06:15:09.322Z,96.31
2018-01-16T06:16:09.299Z,96.61
2018-01-16T06:17:09.313Z,96.80
2018-01-16T06:18:09.308Z,96.70
2018-01-16T06:19:09.284Z,96.70
2018-01-16T06:20:09.302Z,96.41
2018-01-16T06:21:09.275Z,96.61
2018-01-16T06:22:09.274Z,96.61
2018-01-16T06:23:09.283Z,96.12
2018-01-16T06:24:09.260Z,96.22
2018-01-16T06:25:09.278Z,96.22
2018-01-16T06:26:09.273Z,95.74
2018-01-16T06:27:09.237Z,96.12
2018-01-16T06:28:09.240Z,96.22
2018-01-16T06:29:09.254Z,95.93
2018-01-16T06:30:09.230Z,95.74
2018-01-16T06:31:09.224Z,95.54
2018-01-16T06:32:09.213Z,95.35
2018-01-16T06:33:09.233Z,95.25
2018-01-16T06:34:09.229Z,95.35
2018-01-16T06:35:09.227Z,95.64
2018-01-16T06:36:09.223Z,95.54
2018-01-16T06:37:09.213Z,95.64
2018-01-16T06:38:09.190Z,95.54
2018-01-16T06:39:09.188Z,95.54
2018-01-16T06:40:09.198Z,95.74
2018-01-16T06:41:09.175Z,95.45
2018-01-16T06:42:09.189Z,95.54
2018-01-16T06:43:09.158Z,95.35
2018-01-16T06:44:09.164Z,95.06
2018-01-16T06:45:09.179Z,95.30
2018-01-16T06:46:09.151Z,95.74
2018-01-16T06:47:09.168Z,95.45
2018-01-16T06:48:09.140Z,95.64
2018-01-16T06:49:09.159Z,95.54
2018-01-16T06:50:09.144Z,95.54
2018-01-16T06:51:09.125Z,95.64
2018-01-16T06:52:09.134Z,95.25
2018-01-16T06:53:09.116Z,95.35
2018-01-16T06:54:09.131Z,95.74
2018-01-16T06:55:09.125Z,95.83
2018-01-16T06:56:09.105Z,96.22
2018-01-16T06:57:09.102Z,96.31
2018-01-16T06:58:09.091Z,96.03
2018-01-16T06:59:09.087Z,96.80
2018-01-16T07:00:09.095Z,97.09
2018-01-16T07:01:09.078Z,96.31
2018-01-16T07:02:09.072Z,96.61
2018-01-16T07:03:09.070Z,96.80
2018-01-16T07:04:09.061Z,96.51
2018-01-16T07:05:09.061Z,96.51
2018-01-16T07:06:09.046Z,96.41
2018-01-16T07:07:09.041Z,96.31
2018-01-16T07:08:09.041Z,96.99
2018-01-16T07:09:09.041Z,96.80
2018-01-16T07:10:09.025Z,97.38
2018-01-16T07:11:09.129Z,96.89
2018-01-16T07:12:09.025Z,96.70
2018-01-16T07:13:09.020Z,96.70
2018-01-16T07:14:09.015Z,96.70
2018-01-16T07:15:08.999Z,96.41
2018-01-16T07:16:09.001Z,96.31
2018-01-16T07:17:09.100Z,96.61
2018-01-16T07:18:08.995Z,96.41
2018-01-16T07:19:08.990Z,96.80
2018-01-16T07:20:08.985Z,96.51
2018-01-16T07:21:08.981Z,96.41
2018-01-16T07:22:08.975Z,96.31
2018-01-16T07:23:09.077Z,96.70
2018-01-16T07:24:08.965Z,96.31
2018-01-16T07:25:08.961Z,96.70
2018-01-16T07:26:08.956Z,96.41
2018-01-16T07:27:08.950Z,96.31
2018-01-16T07:28:08.945Z,97.47
2018-01-16T07:29:08.959Z,97.09
2018-01-16T07:30:08.936Z,96.89
2018-01-16T07:31:08.936Z,96.51
2018-01-16T07:32:08.925Z,96.99
2018-01-16T07:33:08.940Z,96.31
2018-01-16T07:34:08.917Z,96.61
2018-01-16T07:35:08.930Z,96.70
2018-01-16T07:36:08.925Z,96.61
2018-01-16T07:37:08.901Z,96.46
2018-01-16T07:38:08.897Z,96.46
2018-01-16T07:39:08.891Z,96.75
2018-01-16T07:40:08.901Z,96.51
2018-01-16T07:41:08.982Z,96.99
2018-01-16T07:42:08.896Z,96.31
2018-01-16T07:43:08.872Z,96.70
2018-01-16T07:44:08.885Z,96.89
2018-01-16T07:45:08.851Z,96.51
2018-01-16T07:46:08.866Z,97.19
2018-01-16T07:47:08.860Z,97.47
2018-01-16T07:48:08.838Z,97.28
2018-01-16T07:49:08.861Z,97.47
2018-01-16T07:50:08.860Z,97.09
2018-01-16T07:51:08.823Z,97.19
2018-01-16T07:52:08.827Z,97.28
2018-01-16T07:53:08.837Z,97.86
2018-01-16T07:54:08.826Z,97.77
2018-01-16T07:55:08.812Z,97.86
2018-01-16T07:56:08.822Z,97.09
2018-01-16T07:57:08.799Z,97.24
2018-01-16T07:58:08.817Z,97.52
2018-01-16T07:59:08.800Z,96.84
2018-01-16T08:00:08.807Z,97.33
2018-01-16T08:01:08.783Z,97.33
2018-01-16T08:02:08.779Z,97.52
2018-01-16T08:03:08.769Z,96.84
2018-01-16T08:04:08.776Z,96.75
2018-01-16T08:05:08.755Z,96.75
2018-01-16T08:06:08.768Z,96.36
2018-01-16T08:07:08.763Z,97.62
2018-01-16T08:08:08.749Z,96.75
2018-01-16T08:09:08.741Z,96.36
2018-01-16T08:10:08.740Z,96.66
2018-01-16T08:11:08.753Z,96.66
2018-01-16T08:12:08.726Z,96.36
2018-01-16T08:13:08.745Z,96.75
2018-01-16T08:14:08.740Z,97.24
2018-01-16T08:15:08.716Z,97.04
2018-01-16T08:16:08.702Z,97.57
2018-01-16T08:17:08.723Z,98.54
2018-01-16T08:18:08.698Z,98.34
2018-01-16T08:19:08.700Z,98.63
2018-01-16T08:20:08.682Z,99.02
2018-01-16T08:21:08.688Z,98.73
2018-01-16T08:22:08.792Z,99.02
2018-01-16T08:23:08.673Z,99.60
2018-01-16T08:24:08.669Z,99.98
2018-01-16T08:25:08.664Z,99.99
2018-01-16T08:26:08.665Z,99.88
2018-01-16T08:27:08.672Z,99.79
2018-01-16T08:28:08.761Z,99.99
2018-01-16T08:29:08.643Z,99.79
2018-01-16T08:30:08.640Z,99.69
2018-01-16T08:31:08.651Z,99.40
2018-01-16T08:32:08.646Z,99.99
2018-01-16T08:33:08.641Z,99.79
2018-01-16T08:34:08.617Z,99.88
2018-01-16T08:35:08.616Z,99.69
2018-01-16T08:36:08.606Z,99.69
2018-01-16T08:37:08.606Z,99.02
2018-01-16T08:38:08.601Z,97.96
2018-01-16T08:39:08.611Z,99.11
2018-01-16T08:40:08.605Z,98.25
2018-01-16T08:41:08.594Z,98.15
2018-01-16T08:42:08.577Z,98.73
2018-01-16T08:43:08.594Z,98.05
2018-01-16T08:44:08.584Z,98.25
2018-01-16T08:45:08.579Z,97.96
2018-01-16T08:46:08.579Z,99.02
2018-01-16T08:47:08.568Z,98.73
2018-01-16T08:48:08.564Z,98.63
2018-01-16T08:49:08.553Z,99.50
2018-01-16T08:50:08.548Z,98.73
2018-01-16T08:51:08.552Z,99.79
2018-01-16T08:52:08.536Z,99.02
2018-01-16T08:53:08.539Z,98.83
2018-01-16T08:54:08.533Z,98.54
2018-01-16T08:55:08.522Z,98.25
2018-01-16T08:56:08.527Z,98.15
2018-01-16T08:57:08.518Z,97.67
2018-01-16T08:58:08.507Z,97.77
2018-01-16T08:59:08.501Z,97.77
2018-01-16T09:00:08.496Z,96.70
2018-01-16T09:01:08.497Z,97.38
2018-01-16T09:02:08.493Z,96.70
2018-01-16T09:03:08.482Z,96.22
2018-01-16T09:04:08.482Z,96.22
2018-01-16T09:05:08.472Z,96.61
2018-01-16T09:06:08.472Z,96.51
2018-01-16T09:07:08.461Z,96.36
2018-01-16T09:08:08.465Z,96.61
2018-01-16T09:09:08.457Z,96.31
2018-01-16T09:10:08.456Z,96.22
2018-01-16T09:11:08.446Z,96.46
2018-01-16T09:12:08.435Z,96.08
2018-01-16T09:13:08.437Z,95.40
2018-01-16T09:14:08.432Z,95.59
2018-01-16T09:15:08.426Z,95.59
2018-01-16T09:16:08.422Z,95.20
2018-01-16T09:17:08.417Z,95.64
2018-01-16T09:18:08.415Z,95.16
2018-01-16T09:19:08.406Z,95.45
2018-01-16T09:20:08.402Z,95.54
2018-01-16T09:21:08.397Z,95.83
2018-01-16T09:22:08.398Z,96.17
2018-01-16T09:23:08.386Z,95.78
2018-01-16T09:24:08.382Z,95.78
2018-01-16T09:25:08.379Z,95.50
2018-01-16T09:26:08.372Z,95.59
2018-01-16T09:27:08.366Z,95.59
2018-01-16T09:28:08.363Z,95.59
2018-01-16T09:29:08.356Z,95.78
2018-01-16T09:30:08.352Z,95.93
2018-01-16T09:31:08.346Z,95.83
2018-01-16T09:32:08.341Z,96.12
2018-01-16T09:33:08.337Z,96.31
2018-01-16T09:34:08.334Z,96.51
2018-01-16T09:35:08.326Z,96.17
2018-01-16T09:36:08.321Z,96.08
2018-01-16T09:37:08.317Z,95.78
2018-01-16T09:38:08.312Z,95.98
2018-01-16T09:39:08.306Z,96.46
2018-01-16T09:40:08.301Z,95.88
2018-01-16T09:41:08.296Z,95.83
2018-01-16T09:42:08.292Z,96.41
2018-01-16T09:43:08.286Z,96.80
2018-01-16T09:44:08.281Z,96.31
2018-01-16T09:45:08.280Z,96.66
2018-01-16T09:46:08.265Z,96.75
2018-01-16T09:47:08.265Z,96.94
2018-01-16T09:48:08.261Z,96.08
2018-01-16T09:49:08.260Z,96.26
2018-01-16T09:50:08.252Z,96.26
2018-01-16T09:51:08.280Z,96.08
2018-01-16T09:52:08.226Z,96.75
2018-01-16T09:53:08.233Z,96.26
2018-01-16T09:54:08.232Z,96.36
2018-01-16T09:55:08.207Z,96.36
2018-01-16T09:56:08.218Z,96.17
2018-01-16T09:57:08.198Z,96.17
2018-01-16T09:58:08.187Z,96.46
2018-01-16T09:59:08.181Z,96.75
2018-01-16T10:00:08.184Z,96.36
2018-01-16T10:01:08.188Z,96.26
2018-01-16T10:02:08.194Z,96.94
2018-01-16T10:03:08.162Z,96.84
2018-01-16T10:04:08.168Z,96.56
2018-01-16T10:05:08.164Z,96.61
2018-01-16T10:06:08.165Z,96.66
2018-01-16T10:07:08.169Z,97.04
2018-01-16T10:08:08.160Z,96.94
2018-01-16T10:09:08.156Z,97.33
2018-01-16T10:10:08.151Z,97.62
2018-01-16T10:11:08.135Z,98.10
2018-01-16T10:12:08.130Z,97.62
2018-01-16T10:13:08.123Z,98.00
2018-01-16T10:14:08.132Z,97.62
2018-01-16T10:15:08.116Z,97.96
2018-01-16T10:16:08.101Z,98.00
2018-01-16T10:17:08.106Z,98.39
2018-01-16T10:18:08.098Z,98.20
2018-01-16T10:19:08.097Z,98.30
2018-01-16T10:20:08.105Z,98.49
2018-01-16T10:21:08.093Z,97.86
2018-01-16T10:22:08.082Z,98.39
2018-01-16T10:23:08.096Z,98.20
2018-01-16T10:24:08.066Z,98.58
2018-01-16T10:25:08.092Z,97.33
2018-01-16T10:26:08.082Z,97.57
2018-01-16T10:27:08.066Z,97.38
2018-01-16T10:28:08.063Z,96.41
2018-01-16T10:29:08.064Z,96.66
2018-01-16T10:30:08.063Z,96.94
2018-01-16T10:31:08.047Z,97.14
2018-01-16T10:32:08.043Z,96.94
2018-01-16T10:33:08.045Z,97.62
2018-01-16T10:34:08.035Z,97.62
2018-01-16T10:35:08.029Z,97.28
2018-01-16T10:36:08.024Z,97.38
2018-01-16T10:37:08.030Z,97.57
2018-01-16T10:38:08.015Z,96.51
2018-01-16T10:39:08.010Z,96.70
2018-01-16T10:40:08.006Z,96.51
2018-01-16T10:41:08.002Z,96.12
2018-01-16T10:42:07.998Z,96.12
2018-01-16T10:43:07.992Z,95.54
2018-01-16T10:44:07.988Z,95.64
2018-01-16T10:45:07.984Z,95.64
2018-01-16T10:46:07.980Z,95.64
2018-01-16T10:47:07.974Z,95.64
2018-01-16T10:48:07.970Z,95.64
2018-01-16T10:49:07.972Z,96.41
2018-01-16T10:50:07.961Z,96.61
2018-01-16T10:51:07.956Z,96.61
2018-01-16T10:52:07.958Z,96.03
2018-01-16T10:53:07.954Z,96.61
2018-01-16T10:54:07.944Z,96.22
2018-01-16T10:55:07.947Z,95.93
2018-01-16T10:56:07.941Z,95.83
2018-01-16T10:57:07.933Z,95.49
2018-01-16T10:58:07.928Z,95.59
2018-01-16T10:59:07.923Z,95.15
2018-01-16T11:00:07.917Z,95.20
2018-01-16T11:01:07.922Z,94.91
2018-01-16T11:02:07.915Z,94.82
2018-01-16T11:03:07.919Z,95.30
2018-01-16T11:04:07.906Z,94.72
2018-01-16T11:05:07.901Z,94.24
2018-01-16T11:06:07.894Z,94.33
2018-01-16T11:07:07.896Z,94.43
2018-01-16T11:08:07.892Z,94.14
2018-01-16T11:09:07.885Z,94.82
2018-01-16T11:10:07.874Z,95.30
2018-01-16T11:11:07.866Z,95.30
2018-01-16T11:12:07.876Z,94.04
2018-01-16T11:13:07.869Z,94.14
2018-01-16T11:14:07.864Z,94.04
2018-01-16T11:15:07.859Z,94.04
2018-01-16T11:16:07.855Z,93.75
2018-01-16T11:17:07.855Z,93.95
2018-01-16T11:18:07.846Z,94.72
2018-01-16T11:19:07.846Z,94.82
2018-01-16T11:20:07.838Z,94.33
2018-01-16T11:21:07.830Z,93.66
2018-01-16T11:22:07.826Z,93.51
2018-01-16T11:23:07.821Z,93.70
2018-01-16T11:24:07.812Z,92.93
2018-01-16T11:25:07.811Z,92.44
2018-01-16T11:26:07.807Z,92.54
2018-01-16T11:27:07.813Z,93.12
2018-01-16T11:28:07.799Z,92.69
2018-01-16T11:29:07.802Z,93.27
2018-01-16T11:30:07.797Z,93.41
2018-01-16T11:31:07.784Z,93.12
2018-01-16T11:32:07.790Z,92.40
2018-01-16T11:33:07.779Z,92.54
2018-01-16T11:34:07.781Z,93.02
2018-01-16T11:35:07.773Z,92.35
2018-01-16T11:36:07.770Z,92.25
2018-01-16T11:37:07.770Z,92.25
2018-01-16T11:38:07.759Z,92.16
2018-01-16T11:39:07.765Z,91.77
2018-01-16T11:40:07.757Z,91.86
2018-01-16T11:41:07.758Z,91.58
2018-01-16T11:42:07.750Z,92.00
2018-01-16T11:43:07.742Z,91.96
2018-01-16T11:44:07.742Z,91.82
2018-01-16T11:45:07.735Z,92.00
2018-01-16T11:46:07.731Z,91.14
2018-01-16T11:47:07.730Z,90.56
2018-01-16T11:48:07.723Z,90.65
2018-01-16T11:49:07.724Z,90.84
2018-01-16T11:50:07.716Z,90.56
2018-01-16T11:51:07.712Z,91.42
2018-01-16T11:52:07.713Z,91.14
2018-01-16T11:53:07.710Z,90.84
2018-01-16T11:54:07.710Z,90.36
2018-01-16T11:55:07.705Z,90.56
2018-01-16T11:56:07.702Z,90.56
2018-01-16T11:57:07.699Z,90.17
2018-01-16T11:58:07.693Z,90.36
2018-01-16T11:59:07.687Z,89.69
2018-01-16T12:00:07.684Z,90.07
2018-01-16T12:01:07.671Z,89.97
2018-01-16T12:02:07.670Z,89.88
2018-01-16T12:03:07.667Z,89.97
2018-01-16T12:04:07.660Z,89.78
2018-01-16T12:05:07.661Z,89.69
2018-01-16T12:06:07.653Z,90.26
2018-01-16T12:07:07.654Z,89.39
2018-01-16T12:08:07.639Z,89.49
2018-01-16T12:09:07.631Z,89.39
2018-01-16T12:10:07.632Z,89.29
2018-01-16T12:11:07.643Z,89.39
2018-01-16T12:12:07.636Z,89.01
2018-01-16T12:13:07.611Z,89.59
2018-01-16T12:14:07.630Z,88.91
2018-01-16T12:15:07.603Z,88.71
2018-01-16T12:16:07.621Z,89.01
2018-01-16T12:17:07.622Z,88.76
2018-01-16T12:18:07.605Z,87.85
2018-01-16T12:19:07.600Z,87.70
2018-01-16T12:20:07.602Z,88.13
2018-01-16T12:21:07.607Z,88.33
2018-01-16T12:22:07.585Z,88.91
2018-01-16T12:23:07.580Z,89.01
2018-01-16T12:24:07.581Z,89.20
2018-01-16T12:25:07.574Z,88.81
2018-01-16T12:26:07.574Z,89.01
2018-01-16T12:27:07.566Z,89.11
2018-01-16T12:28:07.579Z,88.53
2018-01-16T12:29:07.575Z,89.01
2018-01-16T12:30:07.571Z,89.59
2018-01-16T12:31:07.566Z,88.62
2018-01-16T12:32:07.552Z,88.71
2018-01-16T12:33:07.560Z,88.91
2018-01-16T12:34:07.541Z,88.91
2018-01-16T12:35:07.536Z,87.79
2018-01-16T12:36:07.557Z,86.73
2018-01-16T12:37:07.554Z,86.44
2018-01-16T12:38:07.638Z,86.24
2018-01-16T12:39:07.536Z,86.82
2018-01-16T12:40:07.534Z,87.02
2018-01-16T12:41:07.534Z,86.44
2018-01-16T12:42:07.531Z,86.15
2018-01-16T12:43:07.506Z,86.34
2018-01-16T12:44:07.523Z,86.63
2018-01-16T12:45:07.501Z,86.96
2018-01-16T12:46:07.502Z,86.29
2018-01-16T12:47:07.517Z,86.38
2018-01-16T12:48:07.490Z,86.19
2018-01-16T12:49:07.511Z,85.90
2018-01-16T12:50:07.482Z,86.09
2018-01-16T12:51:07.499Z,86.19
2018-01-16T12:52:07.481Z,85.22